sensor_id;sensor_type;location;lat;lon;timestamp;pressure;altitude;pressure_sealevel;temperature;humidity
73422;BME280;61637;47.760;-122.022;2023-06-22T00:00:01;102268.97799999999;;;17.6;unknown
73422;BME280;61637;47.760;-122.022;2023-06-22T00:02:00;102268.97799999999;;;17.6;unknown
73422;BME280;61637;47.760;-122.022;2023-06-22T00:04:00;102268.97799999999;;;17.6;unknown
73422;BME280;61637;47.760;-122.022;2023-06-22T00:06:00;102268.97799999999;;;17.6;unknown
73422;BME280;61637;47.760;-122.022;2023-06-22T00:08:03;102268.97799999999;;;17.6;unknown
73422;BME280;61637;47.760;-122.022;2023-06-22T00:10:01;102268.97799999999;;;17.6;unknown
73422;BME280;61637;47.760;-122.022;2023-06-22T00:12:01;102268.97799999999;;;17.6;unknown
73422;BME280;61637;47.760;-122.022;2023-06-22T00:14:00;102268.97799999999;;;17.6;unknown
73422;BME280;61637;47.760;-122.022;2023-06-22T00:16:00;102268.97799999999;;;17.5;unknown
73422;BME280;61637;47.760;-122.022;2023-06-22T00:18:00;102268.97799999999;;;17.6;unknown
73422;BME280;61637;47.760;-122.022;2023-06-22T00:20:00;102268.97799999999;;;17.4;unknown
73422;BME280;61637;47.760;-122.022;2023-06-22T00:22:01;102268.97799999999;;;17.4;unknown
73422;BME280;61637;47.760;-122.022;2023-06-22T00:24:01;102268.97799999999;;;17.4;unknown
73422;BME280;61637;47.760;-122.022;2023-06-22T00:26:00;102268.97799999999;;;17.4;unknown
73422;BME280;61637;47.760;-122.022;2023-06-22T00:28:00;102268.97799999999;;;17.3;unknown
73422;BME280;61637;47.760;-122.022;2023-06-22T00:30:00;102268.97799999999;;;17.3;unknown
73422;BME280;61637;47.760;-122.022;2023-06-22T00:32:00;102268.97799999999;;;17.3;unknown
73422;BME280;61637;47.760;-122.022;2023-06-22T00:34:01;102268.97799999999;;;17.4;unknown
73422;BME280;61637;47.760;-122.022;2023-06-22T00:36:01;102268.97799999999;;;17.4;unknown
73422;BME280;61637;47.760;-122.022;2023-06-22T00:38:00;102268.97799999999;;;17.5;unknown
73422;BME280;61637;47.760;-122.022;2023-06-22T00:40:00;102268.97799999999;;;17.6;unknown
73422;BME280;61637;47.760;-122.022;2023-06-22T00:42:00;102268.97799999999;;;17.8;unknown
73422;BME280;61637;47.760;-122.022;2023-06-22T00:44:00;102268.97799999999;;;17.9;unknown
73422;BME280;61637;47.760;-122.022;2023-06-22T00:46:00;102268.97799999999;;;18.2;unknown
73422;BME280;61637;47.760;-122.022;2023-06-22T00:48:01;102268.97799999999;;;18.3;unknown
73422;BME280;61637;47.760;-122.022;2023-06-22T00:50:00;102268.97799999999;;;18.4;unknown
73422;BME280;61637;47.760;-122.022;2023-06-22T00:52:00;102268.97799999999;;;18.7;unknown
73422;BME280;61637;47.760;-122.022;2023-06-22T00:54:00;102268.97799999999;;;18.8;unknown
73422;BME280;61637;47.760;-122.022;2023-06-22T00:56:00;102268.97799999999;;;18.8;unknown
73422;BME280;61637;47.760;-122.022;2023-06-22T00:58:00;102268.97799999999;;;18.8;unknown
73422;BME280;61637;47.760;-122.022;2023-06-22T01:00:01;102268.97799999999;;;18.8;unknown
73422;BME280;61637;47.760;-122.022;2023-06-22T01:02:06;102268.97799999999;;;18.9;unknown
73422;BME280;61637;47.760;-122.022;2023-06-22T01:04:00;102268.97799999999;;;18.9;unknown
73422;BME280;61637;47.760;-122.022;2023-06-22T01:06:02;102268.97799999999;;;18.9;unknown
73422;BME280;61637;47.760;-122.022;2023-06-22T01:08:05;102268.97799999999;;;18.9;unknown
73422;BME280;61637;47.760;-122.022;2023-06-22T01:10:02;102268.97799999999;;;18.9;unknown
73422;BME280;61637;47.760;-122.022;2023-06-22T01:12:02;102268.97799999999;;;18.9;unknown
73422;BME280;61637;47.760;-122.022;2023-06-22T01:14:02;102268.97799999999;;;18.8;unknown
73422;BME280;61637;47.760;-122.022;2023-06-22T01:16:02;102268.97799999999;;;18.8;unknown
73422;BME280;61637;47.760;-122.022;2023-06-22T01:18:00;102268.97799999999;;;18.8;unknown
73422;BME280;61637;47.760;-122.022;2023-06-22T01:20:00;102268.97799999999;;;18.8;unknown
73422;BME280;61637;47.760;-122.022;2023-06-22T01:22:01;102268.97799999999;;;18.8;unknown
73422;BME280;61637;47.760;-122.022;2023-06-22T01:24:04;102268.97799999999;;;18.8;unknown
73422;BME280;61637;47.760;-122.022;2023-06-22T01:26:04;102268.97799999999;;;18.8;unknown
73422;BME280;61637;47.760;-122.022;2023-06-22T01:28:03;102268.97799999999;;;18.8;unknown
73422;BME280;61637;47.760;-122.022;2023-06-22T01:30:00;102268.97799999999;;;18.7;unknown
73422;BME280;61637;47.760;-122.022;2023-06-22T01:32:00;102268.97799999999;;;18.7;unknown
73422;BME280;61637;47.760;-122.022;2023-06-22T01:34:01;102268.97799999999;;;18.5;unknown
73422;BME280;61637;47.760;-122.022;2023-06-22T01:36:01;102268.97799999999;;;18.3;unknown
73422;BME280;61637;47.760;-122.022;2023-06-22T01:38:00;102268.97799999999;;;18.2;unknown
73422;BME280;61637;47.760;-122.022;2023-06-22T01:40:00;102268.97799999999;;;18.0;unknown
73422;BME280;61637;47.760;-122.022;2023-06-22T01:42:00;102268.97799999999;;;17.9;unknown
73422;BME280;61637;47.760;-122.022;2023-06-22T01:44:00;102268.97799999999;;;17.8;unknown
73422;BME280;61637;47.760;-122.022;2023-06-22T01:46:01;102268.97799999999;;;17.7;unknown
73422;BME280;61637;47.760;-122.022;2023-06-22T01:48:01;102268.97799999999;;;17.6;unknown
73422;BME280;61637;47.760;-122.022;2023-06-22T01:50:00;102268.97799999999;;;17.4;unknown
73422;BME280;61637;47.760;-122.022;2023-06-22T01:52:00;102268.97799999999;;;17.4;unknown
73422;BME280;61637;47.760;-122.022;2023-06-22T01:54:01;102268.97799999999;;;17.3;unknown
73422;BME280;61637;47.760;-122.022;2023-06-22T01:56:00;102268.97799999999;;;17.2;unknown
73422;BME280;61637;47.760;-122.022;2023-06-22T01:58:01;102268.97799999999;;;17.1;unknown
73422;BME280;61637;47.760;-122.022;2023-06-22T02:00:01;102268.97799999999;;;17.0;unknown
73422;BME280;61637;47.760;-122.022;2023-06-22T02:02:01;102268.97799999999;;;16.9;unknown
73422;BME280;61637;47.760;-122.022;2023-06-22T02:04:02;102268.97799999999;;;16.9;unknown
73422;BME280;61637;47.760;-122.022;2023-06-22T02:06:03;102268.97799999999;;;16.8;unknown
73422;BME280;61637;47.760;-122.022;2023-06-22T02:08:02;102268.97799999999;;;16.8;unknown
73422;BME280;61637;47.760;-122.022;2023-06-22T02:10:01;102268.97799999999;;;16.7;unknown
73422;BME280;61637;47.760;-122.022;2023-06-22T02:12:01;102268.97799999999;;;16.7;unknown
73422;BME280;61637;47.760;-122.022;2023-06-22T02:14:00;102268.97799999999;;;16.7;unknown
73422;BME280;61637;47.760;-122.022;2023-06-22T02:16:01;102268.97799999999;;;16.6;unknown
73422;BME280;61637;47.760;-122.022;2023-06-22T02:18:00;102268.97799999999;;;16.6;unknown
73422;BME280;61637;47.760;-122.022;2023-06-22T02:20:01;102268.97799999999;;;16.6;unknown
73422;BME280;61637;47.760;-122.022;2023-06-22T02:22:00;102268.97799999999;;;16.6;unknown
73422;BME280;61637;47.760;-122.022;2023-06-22T02:24:01;102268.97799999999;;;16.6;unknown
73422;BME280;61637;47.760;-122.022;2023-06-22T02:26:00;102268.97799999999;;;16.4;unknown
73422;BME280;61637;47.760;-122.022;2023-06-22T02:28:00;102268.97799999999;;;16.4;unknown
73422;BME280;61637;47.760;-122.022;2023-06-22T02:30:00;102268.97799999999;;;16.4;unknown
73422;BME280;61637;47.760;-122.022;2023-06-22T02:32:00;102268.97799999999;;;16.3;unknown
73422;BME280;61637;47.760;-122.022;2023-06-22T02:34:01;102268.97799999999;;;16.3;unknown
73422;BME280;61637;47.760;-122.022;2023-06-22T02:36:01;102268.97799999999;;;16.2;unknown
73422;BME280;61637;47.760;-122.022;2023-06-22T02:38:01;102268.97799999999;;;16.2;unknown
73422;BME280;61637;47.760;-122.022;2023-06-22T02:40:00;102268.97799999999;;;16.2;unknown
73422;BME280;61637;47.760;-122.022;2023-06-22T02:42:00;102268.97799999999;;;16.2;unknown
73422;BME280;61637;47.760;-122.022;2023-06-22T02:44:00;102268.97799999999;;;16.2;unknown
73422;BME280;61637;47.760;-122.022;2023-06-22T02:46:00;102268.97799999999;;;16.2;unknown
73422;BME280;61637;47.760;-122.022;2023-06-22T02:48:01;102268.97799999999;;;16.1;unknown
73422;BME280;61637;47.760;-122.022;2023-06-22T02:50:00;102268.97799999999;;;16.1;unknown
73422;BME280;61637;47.760;-122.022;2023-06-22T02:52:00;102268.97799999999;;;16.1;unknown
73422;BME280;61637;47.760;-122.022;2023-06-22T02:54:00;102268.97799999999;;;16.1;unknown
73422;BME280;61637;47.760;-122.022;2023-06-22T02:56:01;102268.97799999999;;;16.0;unknown
73422;BME280;61637;47.760;-122.022;2023-06-22T02:58:00;102268.97799999999;;;16.0;unknown
73422;BME280;61637;47.760;-122.022;2023-06-22T03:00:02;102268.97799999999;;;15.9;unknown
73422;BME280;61637;47.760;-122.022;2023-06-22T03:02:00;102268.97799999999;;;15.9;unknown
73422;BME280;61637;47.760;-122.022;2023-06-22T03:04:00;102268.97799999999;;;15.9;unknown
73422;BME280;61637;47.760;-122.022;2023-06-22T03:06:00;102268.97799999999;;;15.9;unknown
73422;BME280;61637;47.760;-122.022;2023-06-22T03:08:00;102268.97799999999;;;15.8;unknown
73422;BME280;61637;47.760;-122.022;2023-06-22T03:10:00;102268.97799999999;;;15.8;unknown
73422;BME280;61637;47.760;-122.022;2023-06-22T03:12:01;102268.97799999999;;;15.8;unknown
73422;BME280;61637;47.760;-122.022;2023-06-22T03:14:01;102268.97799999999;;;15.8;unknown
73422;BME280;61637;47.760;-122.022;2023-06-22T03:16:00;102268.97799999999;;;15.7;unknown
73422;BME280;61637;47.760;-122.022;2023-06-22T03:18:00;102268.97799999999;;;15.7;unknown
73422;BME280;61637;47.760;-122.022;2023-06-22T03:20:00;102268.97799999999;;;15.7;unknown
73422;BME280;61637;47.760;-122.022;2023-06-22T03:22:01;102268.97799999999;;;15.7;unknown
73422;BME280;61637;47.760;-122.022;2023-06-22T03:24:01;102268.97799999999;;;15.6;unknown
73422;BME280;61637;47.760;-122.022;2023-06-22T03:26:01;102268.97799999999;;;15.6;unknown
73422;BME280;61637;47.760;-122.022;2023-06-22T03:28:00;102268.97799999999;;;15.6;unknown
73422;BME280;61637;47.760;-122.022;2023-06-22T03:30:00;102268.97799999999;;;15.5;unknown
73422;BME280;61637;47.760;-122.022;2023-06-22T03:32:00;102268.97799999999;;;15.4;unknown
73422;BME280;61637;47.760;-122.022;2023-06-22T03:34:01;102268.97799999999;;;15.4;unknown
73422;BME280;61637;47.760;-122.022;2023-06-22T03:36:01;102268.97799999999;;;15.4;unknown
73422;BME280;61637;47.760;-122.022;2023-06-22T03:38:00;102268.97799999999;;;15.4;unknown
73422;BME280;61637;47.760;-122.022;2023-06-22T03:40:00;102268.97799999999;;;15.3;unknown
73422;BME280;61637;47.760;-122.022;2023-06-22T03:42:00;102268.97799999999;;;15.3;unknown
73422;BME280;61637;47.760;-122.022;2023-06-22T03:44:00;102268.97799999999;;;15.3;unknown
73422;BME280;61637;47.760;-122.022;2023-06-22T03:46:00;102268.97799999999;;;15.2;unknown
73422;BME280;61637;47.760;-122.022;2023-06-22T03:48:01;102268.97799999999;;;15.2;unknown
73422;BME280;61637;47.760;-122.022;2023-06-22T03:50:00;102268.97799999999;;;15.2;unknown
73422;BME280;61637;47.760;-122.022;2023-06-22T03:52:01;102268.97799999999;;;15.1;unknown
73422;BME280;61637;47.760;-122.022;2023-06-22T03:54:00;102268.97799999999;;;15.1;unknown
73422;BME280;61637;47.760;-122.022;2023-06-22T03:56:00;102268.97799999999;;;15.1;unknown
73422;BME280;61637;47.760;-122.022;2023-06-22T03:58:01;102268.97799999999;;;15.0;unknown
73422;BME280;61637;47.760;-122.022;2023-06-22T04:00:01;102268.97799999999;;;14.9;unknown
73422;BME280;61637;47.760;-122.022;2023-06-22T04:02:00;102268.97799999999;;;14.9;unknown
73422;BME280;61637;47.760;-122.022;2023-06-22T04:04:00;102268.97799999999;;;14.8;unknown
73422;BME280;61637;47.760;-122.022;2023-06-22T04:06:00;102268.97799999999;;;14.8;unknown
73422;BME280;61637;47.760;-122.022;2023-06-22T04:08:00;102268.97799999999;;;14.8;unknown
73422;BME280;61637;47.760;-122.022;2023-06-22T04:10:00;102268.97799999999;;;14.7;unknown
73422;BME280;61637;47.760;-122.022;2023-06-22T04:12:01;102268.97799999999;;;14.7;unknown
73422;BME280;61637;47.760;-122.022;2023-06-22T04:14:00;102268.97799999999;;;14.6;unknown
73422;BME280;61637;47.760;-122.022;2023-06-22T04:16:00;102268.97799999999;;;14.6;unknown
73422;BME280;61637;47.760;-122.022;2023-06-22T04:18:00;102268.97799999999;;;14.5;unknown
73422;BME280;61637;47.760;-122.022;2023-06-22T04:20:00;102268.97799999999;;;14.4;unknown
73422;BME280;61637;47.760;-122.022;2023-06-22T04:22:01;102268.97799999999;;;14.4;unknown
73422;BME280;61637;47.760;-122.022;2023-06-22T04:24:01;102268.97799999999;;;14.4;unknown
73422;BME280;61637;47.760;-122.022;2023-06-22T04:26:00;102268.97799999999;;;14.3;unknown
73422;BME280;61637;47.760;-122.022;2023-06-22T04:28:00;102268.97799999999;;;14.3;unknown
73422;BME280;61637;47.760;-122.022;2023-06-22T04:30:00;102268.97799999999;;;14.3;unknown
73422;BME280;61637;47.760;-122.022;2023-06-22T04:32:00;102268.97799999999;;;14.2;unknown
73422;BME280;61637;47.760;-122.022;2023-06-22T04:34:01;102268.97799999999;;;14.2;unknown
73422;BME280;61637;47.760;-122.022;2023-06-22T04:36:00;102268.97799999999;;;14.2;unknown
73422;BME280;61637;47.760;-122.022;2023-06-22T04:38:00;102268.97799999999;;;14.1;unknown
73422;BME280;61637;47.760;-122.022;2023-06-22T04:40:00;102268.97799999999;;;14.1;unknown
73422;BME280;61637;47.760;-122.022;2023-06-22T04:42:00;102268.97799999999;;;14.1;unknown
73422;BME280;61637;47.760;-122.022;2023-06-22T04:44:00;102268.97799999999;;;14.1;unknown
73422;BME280;61637;47.760;-122.022;2023-06-22T04:46:01;102268.97799999999;;;14.0;unknown
73422;BME280;61637;47.760;-122.022;2023-06-22T04:48:01;102268.97799999999;;;14.0;unknown
73422;BME280;61637;47.760;-122.022;2023-06-22T04:50:00;102268.97799999999;;;13.9;unknown
73422;BME280;61637;47.760;-122.022;2023-06-22T04:52:01;102268.97799999999;;;13.9;unknown
73422;BME280;61637;47.760;-122.022;2023-06-22T04:54:00;102268.97799999999;;;13.9;unknown
73422;BME280;61637;47.760;-122.022;2023-06-22T04:56:00;102268.97799999999;;;13.8;unknown
73422;BME280;61637;47.760;-122.022;2023-06-22T04:58:00;102268.97799999999;;;13.8;unknown
73422;BME280;61637;47.760;-122.022;2023-06-22T05:00:01;102268.97799999999;;;13.8;unknown
73422;BME280;61637;47.760;-122.022;2023-06-22T05:02:01;102268.97799999999;;;13.7;unknown
73422;BME280;61637;47.760;-122.022;2023-06-22T05:04:00;102268.97799999999;;;13.7;unknown
73422;BME280;61637;47.760;-122.022;2023-06-22T05:06:00;102268.97799999999;;;13.7;unknown
73422;BME280;61637;47.760;-122.022;2023-06-22T05:08:00;102268.97799999999;;;13.6;unknown
73422;BME280;61637;47.760;-122.022;2023-06-22T05:10:01;102268.97799999999;;;13.6;unknown
73422;BME280;61637;47.760;-122.022;2023-06-22T05:12:01;102268.97799999999;;;13.6;unknown
73422;BME280;61637;47.760;-122.022;2023-06-22T05:14:00;102268.97799999999;;;13.6;unknown
73422;BME280;61637;47.760;-122.022;2023-06-22T05:16:00;102268.97799999999;;;13.5;unknown
73422;BME280;61637;47.760;-122.022;2023-06-22T05:18:00;102268.97799999999;;;13.5;unknown
73422;BME280;61637;47.760;-122.022;2023-06-22T05:20:00;102268.97799999999;;;13.4;unknown
73422;BME280;61637;47.760;-122.022;2023-06-22T05:22:01;102268.97799999999;;;13.4;unknown
73422;BME280;61637;47.760;-122.022;2023-06-22T05:24:01;102268.97799999999;;;13.3;unknown
73422;BME280;61637;47.760;-122.022;2023-06-22T05:26:00;102268.97799999999;;;13.3;unknown
73422;BME280;61637;47.760;-122.022;2023-06-22T05:28:00;102268.97799999999;;;13.2;unknown
73422;BME280;61637;47.760;-122.022;2023-06-22T05:30:00;102268.97799999999;;;13.2;unknown
73422;BME280;61637;47.760;-122.022;2023-06-22T05:32:00;102268.97799999999;;;13.2;unknown
73422;BME280;61637;47.760;-122.022;2023-06-22T05:34:00;102268.97799999999;;;13.1;unknown
73422;BME280;61637;47.760;-122.022;2023-06-22T05:36:01;102268.97799999999;;;13.1;unknown
73422;BME280;61637;47.760;-122.022;2023-06-22T05:38:00;102268.97799999999;;;13.1;unknown
73422;BME280;61637;47.760;-122.022;2023-06-22T05:40:00;102268.97799999999;;;13.1;unknown
73422;BME280;61637;47.760;-122.022;2023-06-22T05:42:00;102268.97799999999;;;13.0;unknown
73422;BME280;61637;47.760;-122.022;2023-06-22T05:44:00;102268.97799999999;;;12.9;unknown
73422;BME280;61637;47.760;-122.022;2023-06-22T05:46:01;102268.97799999999;;;12.9;unknown
73422;BME280;61637;47.760;-122.022;2023-06-22T05:48:01;102268.97799999999;;;12.9;unknown
73422;BME280;61637;47.760;-122.022;2023-06-22T05:50:00;102268.97799999999;;;12.8;unknown
73422;BME280;61637;47.760;-122.022;2023-06-22T05:52:00;102268.97799999999;;;12.8;unknown
73422;BME280;61637;47.760;-122.022;2023-06-22T05:54:00;102268.97799999999;;;12.8;unknown
73422;BME280;61637;47.760;-122.022;2023-06-22T05:56:00;102268.97799999999;;;12.8;unknown
73422;BME280;61637;47.760;-122.022;2023-06-22T05:58:01;102268.97799999999;;;12.7;unknown
73422;BME280;61637;47.760;-122.022;2023-06-22T06:00:01;102268.97799999999;;;12.7;unknown
73422;BME280;61637;47.760;-122.022;2023-06-22T06:02:00;102268.97799999999;;;12.7;unknown
73422;BME280;61637;47.760;-122.022;2023-06-22T06:04:00;102268.97799999999;;;12.6;unknown
73422;BME280;61637;47.760;-122.022;2023-06-22T06:06:00;102268.97799999999;;;12.6;unknown
73422;BME280;61637;47.760;-122.022;2023-06-22T06:08:00;102268.97799999999;;;12.6;unknown
73422;BME280;61637;47.760;-122.022;2023-06-22T06:10:00;102268.97799999999;;;12.5;unknown
73422;BME280;61637;47.760;-122.022;2023-06-22T06:12:01;102268.97799999999;;;12.5;unknown
73422;BME280;61637;47.760;-122.022;2023-06-22T06:14:00;102268.97799999999;;;12.4;unknown
73422;BME280;61637;47.760;-122.022;2023-06-22T06:16:00;102268.97799999999;;;12.4;unknown
73422;BME280;61637;47.760;-122.022;2023-06-22T06:18:00;102268.97799999999;;;12.4;unknown
73422;BME280;61637;47.760;-122.022;2023-06-22T06:20:03;102268.97799999999;;;12.4;unknown
73422;BME280;61637;47.760;-122.022;2023-06-22T06:22:00;102268.97799999999;;;12.3;unknown
73422;BME280;61637;47.760;-122.022;2023-06-22T06:24:00;102268.97799999999;;;12.3;unknown
73422;BME280;61637;47.760;-122.022;2023-06-22T06:26:00;102268.97799999999;;;12.3;unknown
73422;BME280;61637;47.760;-122.022;2023-06-22T06:28:00;102268.97799999999;;;12.2;unknown
73422;BME280;61637;47.760;-122.022;2023-06-22T06:30:00;102268.97799999999;;;12.2;unknown
73422;BME280;61637;47.760;-122.022;2023-06-22T06:32:00;102268.97799999999;;;12.2;unknown
73422;BME280;61637;47.760;-122.022;2023-06-22T06:34:00;102268.97799999999;;;12.2;unknown
73422;BME280;61637;47.760;-122.022;2023-06-22T06:36:01;102268.97799999999;;;12.2;unknown
73422;BME280;61637;47.760;-122.022;2023-06-22T06:38:00;102268.97799999999;;;12.1;unknown
73422;BME280;61637;47.760;-122.022;2023-06-22T06:40:00;102268.97799999999;;;12.1;unknown
73422;BME280;61637;47.760;-122.022;2023-06-22T06:42:00;102268.97799999999;;;12.1;unknown
73422;BME280;61637;47.760;-122.022;2023-06-22T06:44:00;102268.97799999999;;;12.1;unknown
73422;BME280;61637;47.760;-122.022;2023-06-22T06:46:00;102268.97799999999;;;12.0;unknown
73422;BME280;61637;47.760;-122.022;2023-06-22T06:48:01;102268.97799999999;;;12.0;unknown
73422;BME280;61637;47.760;-122.022;2023-06-22T06:50:00;102268.97799999999;;;11.9;unknown
73422;BME280;61637;47.760;-122.022;2023-06-22T06:52:00;102268.97799999999;;;11.9;unknown
73422;BME280;61637;47.760;-122.022;2023-06-22T06:54:01;102268.97799999999;;;11.9;unknown
73422;BME280;61637;47.760;-122.022;2023-06-22T06:56:01;102268.97799999999;;;11.9;unknown
73422;BME280;61637;47.760;-122.022;2023-06-22T06:58:01;102268.97799999999;;;11.8;unknown
73422;BME280;61637;47.760;-122.022;2023-06-22T07:00:01;102268.97799999999;;;11.8;unknown
73422;BME280;61637;47.760;-122.022;2023-06-22T07:02:00;102268.97799999999;;;11.8;unknown
73422;BME280;61637;47.760;-122.022;2023-06-22T07:04:00;102268.97799999999;;;11.8;unknown
73422;BME280;61637;47.760;-122.022;2023-06-22T07:06:00;102268.97799999999;;;11.7;unknown
73422;BME280;61637;47.760;-122.022;2023-06-22T07:08:01;102268.97799999999;;;11.7;unknown
73422;BME280;61637;47.760;-122.022;2023-06-22T07:10:00;102268.97799999999;;;11.7;unknown
73422;BME280;61637;47.760;-122.022;2023-06-22T07:12:01;102268.97799999999;;;11.6;unknown
73422;BME280;61637;47.760;-122.022;2023-06-22T07:14:00;102268.97799999999;;;11.6;unknown
73422;BME280;61637;47.760;-122.022;2023-06-22T07:16:00;102268.97799999999;;;11.6;unknown
73422;BME280;61637;47.760;-122.022;2023-06-22T07:18:00;102268.97799999999;;;11.6;unknown
73422;BME280;61637;47.760;-122.022;2023-06-22T07:20:00;102268.97799999999;;;11.5;unknown
73422;BME280;61637;47.760;-122.022;2023-06-22T07:22:00;102268.97799999999;;;11.5;unknown
73422;BME280;61637;47.760;-122.022;2023-06-22T07:24:01;102268.97799999999;;;11.5;unknown
73422;BME280;61637;47.760;-122.022;2023-06-22T07:26:00;102268.97799999999;;;11.4;unknown
73422;BME280;61637;47.760;-122.022;2023-06-22T07:28:01;102268.97799999999;;;11.4;unknown
73422;BME280;61637;47.760;-122.022;2023-06-22T07:30:00;102268.97799999999;;;11.4;unknown
73422;BME280;61637;47.760;-122.022;2023-06-22T07:32:00;102268.97799999999;;;11.3;unknown
73422;BME280;61637;47.760;-122.022;2023-06-22T07:34:00;102268.97799999999;;;11.3;unknown
73422;BME280;61637;47.760;-122.022;2023-06-22T07:36:01;102268.97799999999;;;11.3;unknown
73422;BME280;61637;47.760;-122.022;2023-06-22T07:38:00;102268.97799999999;;;11.3;unknown
73422;BME280;61637;47.760;-122.022;2023-06-22T07:40:00;102268.97799999999;;;11.3;unknown
73422;BME280;61637;47.760;-122.022;2023-06-22T07:42:00;102268.97799999999;;;11.3;unknown
73422;BME280;61637;47.760;-122.022;2023-06-22T07:44:02;102268.97799999999;;;11.2;unknown
73422;BME280;61637;47.760;-122.022;2023-06-22T07:46:00;102268.97799999999;;;11.2;unknown
73422;BME280;61637;47.760;-122.022;2023-06-22T07:48:01;102268.97799999999;;;11.2;unknown
73422;BME280;61637;47.760;-122.022;2023-06-22T07:50:00;102268.97799999999;;;11.2;unknown
73422;BME280;61637;47.760;-122.022;2023-06-22T07:52:00;102268.97799999999;;;11.1;unknown
73422;BME280;61637;47.760;-122.022;2023-06-22T07:54:00;101930.339;;;11.1;unknown
73422;BME280;61637;47.760;-122.022;2023-06-22T07:56:00;101930.339;;;11.1;unknown
73422;BME280;61637;47.760;-122.022;2023-06-22T07:58:00;101930.339;;;11.1;unknown
73422;BME280;61637;47.760;-122.022;2023-06-22T08:00:02;101930.339;;;11.1;unknown
73422;BME280;61637;47.760;-122.022;2023-06-22T08:02:00;101930.339;;;11.0;unknown
73422;BME280;61637;47.760;-122.022;2023-06-22T08:04:00;101930.339;;;10.9;unknown
73422;BME280;61637;47.760;-122.022;2023-06-22T08:06:00;101930.339;;;10.9;unknown
73422;BME280;61637;47.760;-122.022;2023-06-22T08:08:01;101930.339;;;10.9;unknown
73422;BME280;61637;47.760;-122.022;2023-06-22T08:10:00;101930.339;;;10.9;unknown
73422;BME280;61637;47.760;-122.022;2023-06-22T08:12:01;101930.339;;;10.8;unknown
73422;BME280;61637;47.760;-122.022;2023-06-22T08:14:00;101930.339;;;10.8;unknown
73422;BME280;61637;47.760;-122.022;2023-06-22T08:16:00;101930.339;;;10.8;unknown
73422;BME280;61637;47.760;-122.022;2023-06-22T08:18:00;101930.339;;;10.8;unknown
73422;BME280;61637;47.760;-122.022;2023-06-22T08:20:00;101930.339;;;10.8;unknown
73422;BME280;61637;47.760;-122.022;2023-06-22T08:22:00;101930.339;;;10.8;unknown
73422;BME280;61637;47.760;-122.022;2023-06-22T08:24:00;101930.339;;;10.7;unknown
73422;BME280;61637;47.760;-122.022;2023-06-22T08:26:00;101930.339;;;10.7;unknown
73422;BME280;61637;47.760;-122.022;2023-06-22T08:28:00;101930.339;;;10.7;unknown
73422;BME280;61637;47.760;-122.022;2023-06-22T08:30:00;101930.339;;;10.7;unknown
73422;BME280;61637;47.760;-122.022;2023-06-22T08:32:00;101930.339;;;10.7;unknown
73422;BME280;61637;47.760;-122.022;2023-06-22T08:34:00;101930.339;;;10.7;unknown
73422;BME280;61637;47.760;-122.022;2023-06-22T08:36:01;101930.339;;;10.7;unknown
73422;BME280;61637;47.760;-122.022;2023-06-22T08:38:00;101930.339;;;10.6;unknown
73422;BME280;61637;47.760;-122.022;2023-06-22T08:40:01;101930.339;;;10.6;unknown
73422;BME280;61637;47.760;-122.022;2023-06-22T08:42:00;101930.339;;;10.6;unknown
73422;BME280;61637;47.760;-122.022;2023-06-22T08:44:01;101930.339;;;10.6;unknown
73422;BME280;61637;47.760;-122.022;2023-06-22T08:46:00;101930.339;;;10.5;unknown
73422;BME280;61637;47.760;-122.022;2023-06-22T08:48:00;101930.339;;;10.4;unknown
73422;BME280;61637;47.760;-122.022;2023-06-22T08:50:00;101930.339;;;10.4;unknown
73422;BME280;61637;47.760;-122.022;2023-06-22T08:52:00;101930.339;;;10.4;unknown
73422;BME280;61637;47.760;-122.022;2023-06-22T08:54:00;101930.339;;;10.4;unknown
73422;BME280;61637;47.760;-122.022;2023-06-22T08:56:01;101930.339;;;10.4;unknown
73422;BME280;61637;47.760;-122.022;2023-06-22T08:58:00;101930.339;;;10.4;unknown
73422;BME280;61637;47.760;-122.022;2023-06-22T09:00:00;101930.339;;;10.4;unknown